Time;durP1;ratioP1;P1;durP2;ratioP2;P2;SDS_P1;SDS_P2;PMS_P1;PMS_P2;Temp;Humidity;BMP_temperature;BMP_pressure;BME280_temperature;BME280_humidity;BME280_pressure;Samples;Min_cycle;Max_cycle;Signal;HPM_P1;HPM_P2
2020/12/20 00:01:40;;;;;;;0.30;0.30;;;;;;;;;;5096127;28;20237;-72
2020/12/20 00:04:08;;;;;;;0.30;0.30;;;;;;;;;;5106114;28;20268;-74
2020/12/20 00:06:36;;;;;;;1.43;1.43;;;;;;;;;;5093796;28;20273;-73
2020/12/20 00:09:09;;;;;;;0.30;0.30;;;;;;;;;;5092590;28;20489;-75
2020/12/20 00:11:38;;;;;;;0.87;0.87;;;;;;;;;;5112452;28;20271;-75
2020/12/20 00:14:26;;;;;;;0.97;0.97;;;;;;;;;;5120272;28;20201;-75
2020/12/20 00:16:52;;;;;;;0.20;0.20;;;;;;;;;;5114574;28;20229;-75
2020/12/20 00:19:18;;;;;;;13.77;3.67;;;;;;;;;;5094884;28;20489;-75
2020/12/20 00:21:45;;;;;;;0.53;0.53;;;;;;;;;;5098710;28;20221;-74
2020/12/20 00:24:12;;;;;;;1.00;0.97;;;;;;;;;;5103256;28;20469;-74
2020/12/20 00:26:42;;;;;;;0.70;0.60;;;;;;;;;;5115416;28;20199;-74
2020/12/20 00:29:08;;;;;;;0.20;0.20;;;;;;;;;;5112032;28;20225;-75
2020/12/20 00:31:35;;;;;;;0.40;0.40;;;;;;;;;;5099418;28;20274;-74
2020/12/20 00:34:01;;;;;;;0.67;0.67;;;;;;;;;;5097717;28;20459;-75
2020/12/20 00:36:28;;;;;;;0.20;0.20;;;;;;;;;;5095419;28;20218;-75
2020/12/20 00:38:54;;;;;;;0.20;0.20;;;;;;;;;;5108538;28;20472;-73
2020/12/20 00:41:24;;;;;;;0.87;0.87;;;;;;;;;;5099024;28;20269;-74
2020/12/20 00:43:51;;;;;;;1.40;0.87;;;;;;;;;;5099048;28;20547;-74
2020/12/20 00:46:18;;;;;;;1.50;0.57;;;;;;;;;;5101409;28;20279;-74
2020/12/20 00:48:44;;;;;;;0.30;0.30;;;;;;;;;;5101805;28;20239;-74
2020/12/20 00:51:11;;;;;;;0.20;0.20;;;;;;;;;;5101461;28;20264;-74
2020/12/20 00:53:37;;;;;;;0.20;0.20;;;;;;;;;;5099124;28;20500;-74
2020/12/20 00:56:05;;;;;;;0.37;0.37;;;;;;;;;;5113191;28;20221;-75
2020/12/20 00:58:33;;;;;;;0.20;0.20;;;;;;;;;;5099531;28;20196;-75
2020/12/20 01:01:00;;;;;;;0.40;0.40;;;;;;;;;;5100479;28;20512;-75
2020/12/20 01:03:27;;;;;;;0.30;0.30;;;;;;;;;;5098195;28;20194;-75
2020/12/20 01:05:53;;;;;;;0.20;0.20;;;;;;;;;;5099633;28;20193;-74
2020/12/20 01:08:20;;;;;;;0.30;0.30;;;;;;;;;;5098025;28;20396;-74
2020/12/20 01:10:46;;;;;;;0.20;0.20;;;;;;;;;;5100467;28;20197;-75
2020/12/20 01:13:13;;;;;;;0.30;0.30;;;;;;;;;;5096846;28;20490;-75
2020/12/20 01:15:40;;;;;;;0.57;0.57;;;;;;;;;;5093488;28;20238;-75
2020/12/20 01:18:07;;;;;;;0.77;0.77;;;;;;;;;;5084693;28;20217;-75
2020/12/20 01:20:33;;;;;;;0.30;0.30;;;;;;;;;;5101572;28;20198;-75
2020/12/20 01:23:00;;;;;;;2.97;1.00;;;;;;;;;;5101611;28;20217;-75
2020/12/20 01:25:26;;;;;;;0.30;0.30;;;;;;;;;;5113806;28;20524;-75
2020/12/20 01:27:53;;;;;;;2.10;2.10;;;;;;;;;;5098420;28;20205;-75
2020/12/20 01:30:19;;;;;;;0.20;0.20;;;;;;;;;;5101787;28;20218;-75
2020/12/20 01:32:46;;;;;;;0.53;0.53;;;;;;;;;;5101295;28;20244;-75
2020/12/20 01:35:13;;;;;;;0.60;0.60;;;;;;;;;;5101507;28;20242;-75
2020/12/20 01:37:39;;;;;;;0.93;0.93;;;;;;;;;;5095227;28;20197;-75
2020/12/20 01:40:06;;;;;;;0.40;0.40;;;;;;;;;;5099203;28;20497;-75
2020/12/20 01:42:32;;;;;;;0.37;0.37;;;;;;;;;;5121647;28;20375;-75
2020/12/20 01:44:58;;;;;;;0.30;0.30;;;;;;;;;;5097409;28;20412;-74
2020/12/20 01:47:26;;;;;;;0.30;0.30;;;;;;;;;;5104003;28;20202;-74
2020/12/20 01:49:55;;;;;;;0.57;0.57;;;;;;;;;;5109089;28;20217;-75
2020/12/20 01:52:22;;;;;;;0.40;0.40;;;;;;;;;;5084477;28;20490;-73
2020/12/20 01:54:50;;;;;;;0.30;0.30;;;;;;;;;;5093458;28;20195;-73
2020/12/20 01:57:16;;;;;;;0.33;0.33;;;;;;;;;;5099867;28;20205;-73
2020/12/20 01:59:43;;;;;;;1.17;0.90;;;;;;;;;;5102263;28;20259;-75
2020/12/20 02:02:10;;;;;;;0.47;0.47;;;;;;;;;;5101834;28;20198;-75
2020/12/20 02:04:36;;;;;;;0.20;0.20;;;;;;;;;;5096294;28;20252;-75
2020/12/20 02:07:04;;;;;;;0.40;0.40;;;;;;;;;;5095980;28;20205;-74
2020/12/20 02:09:30;;;;;;;0.30;0.30;;;;;;;;;;5101887;28;20210;-73
2020/12/20 02:12:01;;;;;;;2.00;1.40;;;;;;;;;;5101691;28;20531;-73
2020/12/20 02:14:27;;;;;;;0.30;0.30;;;;;;;;;;5106992;28;20198;-73
2020/12/20 02:16:54;;;;;;;0.23;0.23;;;;;;;;;;5102047;28;20262;-73
2020/12/20 02:19:20;;;;;;;1.43;1.43;;;;;;;;;;5098788;28;20198;-73
2020/12/20 02:21:48;;;;;;;0.20;0.20;;;;;;;;;;5102542;28;20203;-75
2020/12/20 02:24:14;;;;;;;0.30;0.30;;;;;;;;;;5098218;28;20229;-75
2020/12/20 02:26:41;;;;;;;0.60;0.60;;;;;;;;;;5106026;28;20190;-75
2020/12/20 02:29:07;;;;;;;0.30;0.30;;;;;;;;;;5104726;28;20193;-72
2020/12/20 02:31:34;;;;;;;0.30;0.30;;;;;;;;;;5105706;28;20202;-73
2020/12/20 02:34:01;;;;;;;0.20;0.20;;;;;;;;;;5105702;28;20519;-73
2020/12/20 02:36:28;;;;;;;0.30;0.30;;;;;;;;;;5102660;28;20245;-73
2020/12/20 02:38:55;;;;;;;0.30;0.30;;;;;;;;;;5098631;28;20387;-73
2020/12/20 02:41:21;;;;;;;0.30;0.30;;;;;;;;;;5094032;28;20232;-75
2020/12/20 02:43:48;;;;;;;0.30;0.30;;;;;;;;;;5104684;28;20226;-73
2020/12/20 02:46:15;;;;;;;0.60;0.60;;;;;;;;;;5115973;28;20256;-75
2020/12/20 02:48:42;;;;;;;0.30;0.30;;;;;;;;;;5114433;28;20207;-74
2020/12/20 02:51:08;;;;;;;1.50;0.83;;;;;;;;;;5098075;28;20273;-73
2020/12/20 02:53:35;;;;;;;0.20;0.20;;;;;;;;;;5104062;28;20264;-74
2020/12/20 02:56:02;;;;;;;0.30;0.30;;;;;;;;;;5103016;28;20213;-74
2020/12/20 02:58:28;;;;;;;0.43;0.43;;;;;;;;;;5104106;28;20225;-74
2020/12/20 03:00:55;;;;;;;1.73;1.73;;;;;;;;;;5117192;28;20529;-74
2020/12/20 03:03:21;;;;;;;4.53;4.10;;;;;;;;;;5103103;28;20264;-74
2020/12/20 03:05:48;;;;;;;0.30;0.30;;;;;;;;;;5102740;28;20212;-74
2020/12/20 03:08:14;;;;;;;0.30;0.30;;;;;;;;;;5101653;28;20329;-74
2020/12/20 03:10:40;;;;;;;0.20;0.20;;;;;;;;;;5111147;28;20532;-74
2020/12/20 03:13:08;;;;;;;0.37;0.37;;;;;;;;;;5104028;28;20484;-74
2020/12/20 03:15:36;;;;;;;0.37;0.37;;;;;;;;;;5104581;28;20248;-74
2020/12/20 03:18:02;;;;;;;0.77;0.77;;;;;;;;;;5097523;28;20477;-73
2020/12/20 03:20:29;;;;;;;2.30;2.20;;;;;;;;;;5092755;28;20194;-74
2020/12/20 03:22:55;;;;;;;0.20;0.20;;;;;;;;;;5104890;28;20488;-75
2020/12/20 03:25:21;;;;;;;0.40;0.40;;;;;;;;;;5104163;28;20466;-74
2020/12/20 03:27:48;;;;;;;0.30;0.30;;;;;;;;;;5118116;28;20205;-75
2020/12/20 03:30:15;;;;;;;0.20;0.20;;;;;;;;;;5113528;28;20198;-75
2020/12/20 03:32:41;;;;;;;0.57;0.57;;;;;;;;;;5098835;28;20201;-75
2020/12/20 03:35:08;;;;;;;0.40;0.40;;;;;;;;;;5103544;28;20217;-75
2020/12/20 03:37:34;;;;;;;0.20;0.20;;;;;;;;;;5114588;28;20265;-75
2020/12/20 03:40:01;;;;;;;0.50;0.50;;;;;;;;;;5094475;28;20266;-75
2020/12/20 03:42:27;;;;;;;0.70;0.70;;;;;;;;;;5092985;28;20273;-74
2020/12/20 03:44:53;;;;;;;1.50;1.50;;;;;;;;;;5097193;28;20250;-75
2020/12/20 03:47:22;;;;;;;0.90;0.90;;;;;;;;;;5093729;28;20529;-75
2020/12/20 03:49:48;;;;;;;0.33;0.33;;;;;;;;;;5102555;28;20311;-75
2020/12/20 03:52:15;;;;;;;0.20;0.20;;;;;;;;;;5104404;28;20198;-75
2020/12/20 03:54:41;;;;;;;1.13;1.13;;;;;;;;;;5100821;28;20352;-75
2020/12/20 03:57:08;;;;;;;0.80;0.80;;;;;;;;;;5096210;28;20461;-75
2020/12/20 03:59:39;;;;;;;0.20;0.20;;;;;;;;;;5104704;28;20230;-74
2020/12/20 04:02:05;;;;;;;0.30;0.30;;;;;;;;;;5121238;28;20508;-75
2020/12/20 04:04:32;;;;;;;0.20;0.20;;;;;;;;;;5101047;28;20194;-75
2020/12/20 04:06:59;;;;;;;1.53;1.50;;;;;;;;;;5096428;28;20202;-74
2020/12/20 04:09:25;;;;;;;0.97;0.97;;;;;;;;;;5098153;28;20226;-76
2020/12/20 04:11:51;;;;;;;0.40;0.40;;;;;;;;;;5108230;28;20320;-74
2020/12/20 04:14:18;;;;;;;0.30;0.30;;;;;;;;;;5117413;28;20233;-75
2020/12/20 04:16:44;;;;;;;0.30;0.30;;;;;;;;;;5097992;28;20231;-74
2020/12/20 04:19:11;;;;;;;0.30;0.30;;;;;;;;;;5103470;28;20228;-74
2020/12/20 04:21:38;;;;;;;1.90;1.80;;;;;;;;;;5106584;28;20198;-75
2020/12/20 04:24:04;;;;;;;2.40;2.30;;;;;;;;;;5093061;28;20198;-75
2020/12/20 04:26:31;;;;;;;0.30;0.30;;;;;;;;;;5108500;28;20422;-75
2020/12/20 04:28:57;;;;;;;0.20;0.20;;;;;;;;;;5091394;28;20198;-75
2020/12/20 04:31:24;;;;;;;0.30;0.30;;;;;;;;;;5104288;28;20225;-74
2020/12/20 04:33:51;;;;;;;0.60;0.60;;;;;;;;;;5087621;28;20201;-75
2020/12/20 04:36:18;;;;;;;0.20;0.20;;;;;;;;;;5121128;28;20225;-75
2020/12/20 04:38:45;;;;;;;0.60;0.60;;;;;;;;;;5099191;28;20233;-75
2020/12/20 04:41:12;;;;;;;0.20;0.20;;;;;;;;;;5103740;28;20443;-74
2020/12/20 04:43:38;;;;;;;1.33;1.33;;;;;;;;;;5103460;28;20236;-75
2020/12/20 04:46:05;;;;;;;2.10;1.90;;;;;;;;;;5104540;28;20447;-74
2020/12/20 04:48:35;;;;;;;0.27;0.27;;;;;;;;;;5093761;28;20229;-75
2020/12/20 04:51:01;;;;;;;0.27;0.27;;;;;;;;;;5119597;28;20216;-75
2020/12/20 04:53:29;;;;;;;0.20;0.20;;;;;;;;;;5094272;28;20202;-75
2020/12/20 04:55:58;;;;;;;0.40;0.40;;;;;;;;;;5113312;28;20217;-72
2020/12/20 04:58:24;;;;;;;0.23;0.23;;;;;;;;;;5115888;28;20419;-75
2020/12/20 05:00:51;;;;;;;0.20;0.20;;;;;;;;;;5098552;28;20233;-75
2020/12/20 05:03:17;;;;;;;0.30;0.30;;;;;;;;;;5105629;28;20443;-75
2020/12/20 05:05:44;;;;;;;1.60;1.13;;;;;;;;;;5102938;28;20194;-74
2020/12/20 05:08:11;;;;;;;0.60;0.60;;;;;;;;;;5102356;28;20392;-75
2020/12/20 05:10:38;;;;;;;1.27;1.27;;;;;;;;;;5093906;28;20198;-75
2020/12/20 05:13:05;;;;;;;3.33;3.13;;;;;;;;;;5097118;28;20225;-75
2020/12/20 05:15:32;;;;;;;0.30;0.30;;;;;;;;;;5101048;28;20556;-75
2020/12/20 05:18:05;;;;;;;5.17;4.93;;;;;;;;;;5102507;28;20270;-75
2020/12/20 05:20:36;;;;;;;0.30;0.30;;;;;;;;;;5103429;28;20450;-74
2020/12/20 05:23:02;;;;;;;5.93;5.70;;;;;;;;;;5117477;28;20202;-75
2020/12/20 05:25:29;;;;;;;0.20;0.20;;;;;;;;;;5101774;28;20194;-75
2020/12/20 05:28:05;;;;;;;0.30;0.30;;;;;;;;;;5101799;28;20198;-75
2020/12/20 05:30:31;;;;;;;1.37;1.37;;;;;;;;;;5102012;28;20205;-75
2020/12/20 05:32:57;;;;;;;0.30;0.30;;;;;;;;;;5117655;28;20493;-78
2020/12/20 05:35:24;;;;;;;0.30;0.30;;;;;;;;;;5100072;28;20224;-72
2020/12/20 05:37:50;;;;;;;1.97;1.83;;;;;;;;;;5097917;28;20273;-72
2020/12/20 05:40:22;;;;;;;2.53;2.43;;;;;;;;;;5102883;28;20464;-72
2020/12/20 05:42:53;;;;;;;1.53;1.53;;;;;;;;;;5106496;28;20194;-73
2020/12/20 05:45:20;;;;;;;1.30;1.20;;;;;;;;;;5109187;28;20246;-73
2020/12/20 05:47:46;;;;;;;0.30;0.30;;;;;;;;;;5108116;28;20228;-72
2020/12/20 05:50:12;;;;;;;5.60;5.30;;;;;;;;;;5109803;28;20513;-73
2020/12/20 05:52:39;;;;;;;1.23;1.23;;;;;;;;;;5101722;28;20198;-72
2020/12/20 05:55:10;;;;;;;0.30;0.30;;;;;;;;;;5096864;28;20554;-72
2020/12/20 05:57:36;;;;;;;0.80;0.60;;;;;;;;;;5119390;28;20230;-72
2020/12/20 06:00:04;;;;;;;0.30;0.30;;;;;;;;;;5109421;28;20524;-72
2020/12/20 06:02:31;;;;;;;1.07;1.07;;;;;;;;;;5094456;28;20205;-73
2020/12/20 06:05:00;;;;;;;0.50;0.50;;;;;;;;;;5097220;28;20198;-73
2020/12/20 06:07:27;;;;;;;1.53;1.53;;;;;;;;;;5110755;28;20236;-72
2020/12/20 06:09:54;;;;;;;2.93;1.10;;;;;;;;;;5101980;28;20221;-72
2020/12/20 06:12:22;;;;;;;0.30;0.30;;;;;;;;;;5100497;28;20197;-73
2020/12/20 06:14:49;;;;;;;0.43;0.43;;;;;;;;;;5095558;28;20201;-73
2020/12/20 06:17:16;;;;;;;0.60;0.60;;;;;;;;;;5111167;28;20230;-72
2020/12/20 06:19:53;;;;;;;0.30;0.30;;;;;;;;;;5114612;28;20222;-73
2020/12/20 06:22:21;;;;;;;4.20;3.93;;;;;;;;;;5101330;28;20500;-73
2020/12/20 06:24:47;;;;;;;0.47;0.47;;;;;;;;;;5099282;28;20225;-71
2020/12/20 06:27:14;;;;;;;0.30;0.30;;;;;;;;;;5112870;28;20401;-71
2020/12/20 06:29:43;;;;;;;0.30;0.30;;;;;;;;;;5083194;28;20237;-71
2020/12/20 06:32:13;;;;;;;0.30;0.30;;;;;;;;;;5118813;28;20350;-71
2020/12/20 06:34:40;;;;;;;0.67;0.67;;;;;;;;;;5111762;28;20481;-71
2020/12/20 06:37:07;;;;;;;0.30;0.30;;;;;;;;;;5113337;28;20258;-71
2020/12/20 06:39:37;;;;;;;13.93;12.43;;;;;;;;;;5096303;28;20247;-71
2020/12/20 06:42:04;;;;;;;0.30;0.30;;;;;;;;;;5100321;28;20237;-71
2020/12/20 06:44:31;;;;;;;0.30;0.30;;;;;;;;;;5096104;28;20219;-70
2020/12/20 06:46:58;;;;;;;0.90;0.90;;;;;;;;;;5096006;28;20199;-70
2020/12/20 06:49:31;;;;;;;0.30;0.30;;;;;;;;;;5092714;28;20431;-71
2020/12/20 06:52:16;;;;;;;1.70;1.70;;;;;;;;;;5091477;28;20216;-71
2020/12/20 06:55:00;;;;;;;3.60;1.47;;;;;;;;;;5103055;28;20505;-72
2020/12/20 06:57:26;;;;;;;0.37;0.37;;;;;;;;;;5109290;28;20494;-71
2020/12/20 06:59:52;;;;;;;0.30;0.30;;;;;;;;;;5097242;28;20228;-71
2020/12/20 07:02:34;;;;;;;0.63;0.63;;;;;;;;;;5103848;28;20303;-71
2020/12/20 07:05:00;;;;;;;0.30;0.30;;;;;;;;;;5115436;28;20296;-71
2020/12/20 07:07:26;;;;;;;7.63;7.07;;;;;;;;;;5099388;28;20274;-71
2020/12/20 07:09:54;;;;;;;0.30;0.30;;;;;;;;;;5102190;28;20238;-71
2020/12/20 07:12:30;;;;;;;0.40;0.40;;;;;;;;;;5099103;28;20229;-70
2020/12/20 07:14:57;;;;;;;1.03;1.03;;;;;;;;;;5109564;28;20485;-70
2020/12/20 07:17:24;;;;;;;1.37;1.33;;;;;;;;;;5115817;28;20222;-71
2020/12/20 07:20:05;;;;;;;0.30;0.30;;;;;;;;;;5092933;28;20204;-71
2020/12/20 07:22:33;;;;;;;0.80;0.80;;;;;;;;;;5118083;28;20267;-70
2020/12/20 07:25:00;;;;;;;0.27;0.27;;;;;;;;;;5101769;28;20508;-70
2020/12/20 07:27:26;;;;;;;0.40;0.40;;;;;;;;;;5103589;28;20262;-70
2020/12/20 07:29:53;;;;;;;0.40;0.40;;;;;;;;;;5102147;28;20209;-70
2020/12/20 07:32:20;;;;;;;1.80;0.90;;;;;;;;;;5095785;28;20514;-70
2020/12/20 07:34:47;;;;;;;0.30;0.30;;;;;;;;;;5099781;28;20239;-70
2020/12/20 07:37:14;;;;;;;1.03;1.03;;;;;;;;;;5098599;28;20218;-70
2020/12/20 07:39:40;;;;;;;1.40;1.33;;;;;;;;;;5098308;28;20226;-69
2020/12/20 07:42:07;;;;;;;0.30;0.30;;;;;;;;;;5104938;28;20509;-70
2020/12/20 07:44:34;;;;;;;0.77;0.77;;;;;;;;;;5101033;28;20250;-70
2020/12/20 07:47:09;;;;;;;0.50;0.50;;;;;;;;;;5104425;28;20240;-70
2020/12/20 07:49:35;;;;;;;0.30;0.30;;;;;;;;;;5116825;28;20193;-70
2020/12/20 07:52:07;;;;;;;0.40;0.40;;;;;;;;;;5100327;28;20209;-71
2020/12/20 07:54:33;;;;;;;0.30;0.30;;;;;;;;;;5114432;28;20202;-70
2020/12/20 07:56:59;;;;;;;0.30;0.30;;;;;;;;;;5101887;28;20570;-71
2020/12/20 07:59:27;;;;;;;0.20;0.20;;;;;;;;;;5114222;28;20232;-71
2020/12/20 08:01:53;;;;;;;0.50;0.50;;;;;;;;;;5102227;28;20201;-71
2020/12/20 08:04:20;;;;;;;0.43;0.43;;;;;;;;;;5102594;28;20198;-72
2020/12/20 08:06:47;;;;;;;1.20;1.20;;;;;;;;;;5109828;28;20239;-72
2020/12/20 08:09:14;;;;;;;0.30;0.30;;;;;;;;;;5109765;28;20230;-72
2020/12/20 08:11:41;;;;;;;0.30;0.30;;;;;;;;;;5109076;28;20456;-72
2020/12/20 08:14:09;;;;;;;0.30;0.30;;;;;;;;;;5100399;28;20229;-71
2020/12/20 08:16:36;;;;;;;1.80;1.80;;;;;;;;;;5110398;28;20601;-72
2020/12/20 08:19:04;;;;;;;0.30;0.30;;;;;;;;;;5100995;28;20535;-72
2020/12/20 08:21:44;;;;;;;1.63;1.53;;;;;;;;;;5103193;28;20221;-71
2020/12/20 08:24:11;;;;;;;0.43;0.43;;;;;;;;;;5116931;28;20201;-71
2020/12/20 08:26:37;;;;;;;7.73;7.40;;;;;;;;;;5105478;28;20226;-72
2020/12/20 08:29:04;;;;;;;1.03;1.03;;;;;;;;;;5095420;28;20284;-72
2020/12/20 08:31:31;;;;;;;0.30;0.30;;;;;;;;;;5099773;28;20399;-71
2020/12/20 08:33:58;;;;;;;0.30;0.30;;;;;;;;;;5099558;28;20226;-71
2020/12/20 08:36:25;;;;;;;6.87;6.50;;;;;;;;;;5108680;28;20214;-71
2020/12/20 08:38:52;;;;;;;0.30;0.30;;;;;;;;;;5100207;28;20468;-72
2020/12/20 08:41:23;;;;;;;0.83;0.83;;;;;;;;;;5096642;28;20198;-71
2020/12/20 08:44:00;;;;;;;0.77;0.77;;;;;;;;;;5108610;28;20194;-71
2020/12/20 08:46:28;;;;;;;1.63;1.63;;;;;;;;;;5106959;28;20225;-72
2020/12/20 08:48:54;;;;;;;0.30;0.30;;;;;;;;;;5111484;28;20205;-70
2020/12/20 08:51:23;;;;;;;2.40;2.30;;;;;;;;;;5096732;28;20219;-70
2020/12/20 08:53:50;;;;;;;0.20;0.20;;;;;;;;;;5110385;28;20193;-71
2020/12/20 08:56:16;;;;;;;6.80;6.50;;;;;;;;;;5097917;28;20223;-71
2020/12/20 08:58:47;;;;;;;0.40;0.40;;;;;;;;;;5098794;28;20206;-71
2020/12/20 09:01:13;;;;;;;0.50;0.50;;;;;;;;;;5110487;28;20240;-70
2020/12/20 09:03:40;;;;;;;0.60;0.60;;;;;;;;;;5097887;28;20193;-70
2020/12/20 09:06:12;;;;;;;1.80;1.80;;;;;;;;;;5094415;28;20268;-70
2020/12/20 09:08:39;;;;;;;1.30;1.27;;;;;;;;;;5114968;28;20485;-71
2020/12/20 09:11:05;;;;;;;0.50;0.50;;;;;;;;;;5093345;28;20269;-72
2020/12/20 09:13:32;;;;;;;0.20;0.20;;;;;;;;;;5112529;28;20210;-71
2020/12/20 09:15:58;;;;;;;0.50;0.50;;;;;;;;;;5097354;28;20258;-71
2020/12/20 09:18:25;;;;;;;0.20;0.20;;;;;;;;;;5116072;28;20513;-71
2020/12/20 09:20:52;;;;;;;1.17;1.17;;;;;;;;;;5096393;28;20241;-70
2020/12/20 09:23:19;;;;;;;4.23;4.00;;;;;;;;;;5107890;28;20213;-71
2020/12/20 09:25:46;;;;;;;1.40;1.40;;;;;;;;;;5097383;28;20240;-71
2020/12/20 09:28:13;;;;;;;0.20;0.20;;;;;;;;;;5096735;28;20206;-73
2020/12/20 09:30:40;;;;;;;0.53;0.53;;;;;;;;;;5104888;28;20500;-72
2020/12/20 09:33:23;;;;;;;1.07;1.07;;;;;;;;;;5114975;28;20225;-72
2020/12/20 09:35:51;;;;;;;2.43;2.43;;;;;;;;;;5100409;28;20233;-71
2020/12/20 09:38:17;;;;;;;0.30;0.30;;;;;;;;;;5097552;28;20473;-71
2020/12/20 09:40:43;;;;;;;0.20;0.20;;;;;;;;;;5098052;28;20197;-71
2020/12/20 09:43:16;;;;;;;2.70;1.60;;;;;;;;;;5116727;28;20509;-71
2020/12/20 09:45:43;;;;;;;0.93;0.93;;;;;;;;;;5115400;28;20252;-73
2020/12/20 09:48:09;;;;;;;0.20;0.20;;;;;;;;;;5098635;28;20206;-73
2020/12/20 09:50:36;;;;;;;0.90;0.90;;;;;;;;;;5093716;28;20203;-71
2020/12/20 09:53:02;;;;;;;5.43;1.80;;;;;;;;;;5096179;28;20197;-71
2020/12/20 09:55:31;;;;;;;0.40;0.40;;;;;;;;;;5095005;28;20198;-70
2020/12/20 09:57:57;;;;;;;0.47;0.47;;;;;;;;;;5110799;28;20239;-75
2020/12/20 10:00:24;;;;;;;0.40;0.40;;;;;;;;;;5093511;28;20481;-77
2020/12/20 10:02:51;;;;;;;0.20;0.20;;;;;;;;;;5099033;28;20197;-73
2020/12/20 10:05:17;;;;;;;1.90;1.90;;;;;;;;;;5095519;28;20271;-75
2020/12/20 10:07:44;;;;;;;0.20;0.20;;;;;;;;;;5100131;28;20194;-71
2020/12/20 10:10:10;;;;;;;0.20;0.20;;;;;;;;;;5097837;28;20198;-73
2020/12/20 10:12:37;;;;;;;0.30;0.30;;;;;;;;;;5098441;28;20225;-75
2020/12/20 10:15:04;;;;;;;1.20;1.20;;;;;;;;;;5098804;28;20200;-78
2020/12/20 10:17:31;;;;;;;6.07;5.50;;;;;;;;;;5110048;28;20242;-75
2020/12/20 10:19:57;;;;;;;0.20;0.20;;;;;;;;;;5089193;28;20207;-74
2020/12/20 10:22:23;;;;;;;0.20;0.20;;;;;;;;;;5092867;28;20202;-73
2020/12/20 10:24:50;;;;;;;0.20;0.20;;;;;;;;;;5109510;28;20201;-73
2020/12/20 10:27:18;;;;;;;0.20;0.20;;;;;;;;;;5110942;28;20194;-73
2020/12/20 10:29:45;;;;;;;0.23;0.23;;;;;;;;;;5108403;28;20483;-72
2020/12/20 10:32:11;;;;;;;0.90;0.90;;;;;;;;;;5099587;28;20270;-73
2020/12/20 10:34:38;;;;;;;0.70;0.70;;;;;;;;;;5097209;28;20200;-73
2020/12/20 10:37:05;;;;;;;7.00;5.40;;;;;;;;;;5100751;28;20233;-73
2020/12/20 10:39:32;;;;;;;0.83;0.83;;;;;;;;;;5113634;28;20206;-73
2020/12/20 10:41:58;;;;;;;0.37;0.37;;;;;;;;;;5103705;28;20239;-73
2020/12/20 10:44:24;;;;;;;0.43;0.43;;;;;;;;;;5099910;28;20221;-72
2020/12/20 10:46:51;;;;;;;3.10;2.80;;;;;;;;;;5111197;28;20322;-73
2020/12/20 10:49:18;;;;;;;0.20;0.20;;;;;;;;;;5103333;28;20222;-73
2020/12/20 10:51:45;;;;;;;0.10;0.10;;;;;;;;;;5096455;28;20446;-73
2020/12/20 10:54:12;;;;;;;0.33;0.33;;;;;;;;;;5122024;28;20242;-73
2020/12/20 10:56:38;;;;;;;0.20;0.20;;;;;;;;;;5092533;28;20226;-72
2020/12/20 10:59:05;;;;;;;0.20;0.20;;;;;;;;;;5103062;28;20199;-73
2020/12/20 11:01:32;;;;;;;1.33;1.33;;;;;;;;;;5093225;28;20483;-71
2020/12/20 11:03:58;;;;;;;0.20;0.20;;;;;;;;;;5101151;28;20197;-71
2020/12/20 11:06:25;;;;;;;0.23;0.23;;;;;;;;;;5099390;28;20248;-71
2020/12/20 11:08:52;;;;;;;0.20;0.20;;;;;;;;;;5112952;28;20199;-71
2020/12/20 11:11:19;;;;;;;35.37;20.03;;;;;;;;;;5104635;28;20225;-72
2020/12/20 11:13:46;;;;;;;0.20;0.20;;;;;;;;;;5105435;28;20484;-71
2020/12/20 11:16:13;;;;;;;0.20;0.20;;;;;;;;;;5092984;28;20312;-71
2020/12/20 11:18:40;;;;;;;0.83;0.80;;;;;;;;;;5118511;28;20208;-72
2020/12/20 11:21:06;;;;;;;0.53;0.53;;;;;;;;;;5094439;28;20559;-73
2020/12/20 11:23:33;;;;;;;0.20;0.20;;;;;;;;;;5106224;28;20208;-76
2020/12/20 11:26:00;;;;;;;0.20;0.20;;;;;;;;;;5097794;28;20194;-73
2020/12/20 11:28:27;;;;;;;0.20;0.20;;;;;;;;;;5116140;28;20210;-73
2020/12/20 11:30:53;;;;;;;4.70;1.03;;;;;;;;;;5092634;28;20238;-73
2020/12/20 11:33:20;;;;;;;0.20;0.20;;;;;;;;;;5103191;28;20218;-72
2020/12/20 11:35:46;;;;;;;0.20;0.20;;;;;;;;;;5113997;28;20220;-72
2020/12/20 11:38:13;;;;;;;0.20;0.20;;;;;;;;;;5102438;28;20379;-73
2020/12/20 11:40:39;;;;;;;0.20;0.20;;;;;;;;;;5083872;28;20200;-73
2020/12/20 11:43:06;;;;;;;0.20;0.20;;;;;;;;;;5096474;28;20240;-73
2020/12/20 11:45:33;;;;;;;0.20;0.20;;;;;;;;;;5097577;28;20250;-73
2020/12/20 11:47:59;;;;;;;0.20;0.20;;;;;;;;;;5098931;28;20226;-73
2020/12/20 11:50:26;;;;;;;1.33;0.60;;;;;;;;;;5104495;28;20449;-73
2020/12/20 11:52:53;;;;;;;0.20;0.20;;;;;;;;;;5104941;28;20226;-73
2020/12/20 11:55:19;;;;;;;0.20;0.20;;;;;;;;;;5093713;28;20378;-73
2020/12/20 11:57:46;;;;;;;0.20;0.20;;;;;;;;;;5104442;28;20271;-73
2020/12/20 12:00:13;;;;;;;2.57;0.77;;;;;;;;;;5090963;28;20198;-73
2020/12/20 12:02:39;;;;;;;0.20;0.20;;;;;;;;;;5104558;28;20404;-73
2020/12/20 12:05:06;;;;;;;0.20;0.20;;;;;;;;;;5111714;28;20207;-73
2020/12/20 12:07:32;;;;;;;0.10;0.10;;;;;;;;;;5097405;28;20226;-72
2020/12/20 12:09:58;;;;;;;0.53;0.53;;;;;;;;;;5103557;28;20291;-73
2020/12/20 12:12:25;;;;;;;0.63;0.63;;;;;;;;;;5111912;28;20200;-71
2020/12/20 12:14:52;;;;;;;0.30;0.30;;;;;;;;;;5109685;28;20229;-70
2020/12/20 12:17:19;;;;;;;0.73;0.67;;;;;;;;;;5089716;28;20299;-72
2020/12/20 12:19:46;;;;;;;2.73;2.47;;;;;;;;;;5092875;28;20525;-73
2020/12/20 12:22:12;;;;;;;0.93;0.80;;;;;;;;;;5094343;28;20205;-74
2020/12/20 12:24:39;;;;;;;3.80;3.70;;;;;;;;;;5103737;28;20260;-73
2020/12/20 12:27:05;;;;;;;3.37;2.30;;;;;;;;;;5091830;28;20218;-74
2020/12/20 12:29:32;;;;;;;0.20;0.20;;;;;;;;;;5104587;28;20198;-70
2020/12/20 12:31:58;;;;;;;0.20;0.20;;;;;;;;;;5099260;28;20589;-73
2020/12/20 12:34:25;;;;;;;0.20;0.20;;;;;;;;;;5098802;28;20202;-74
2020/12/20 12:36:52;;;;;;;0.20;0.20;;;;;;;;;;5086213;28;20544;-81
2020/12/20 12:39:18;;;;;;;0.77;0.77;;;;;;;;;;5089252;28;20226;-79
2020/12/20 12:41:45;;;;;;;0.47;0.47;;;;;;;;;;5101140;28;20253;-76
2020/12/20 12:44:11;;;;;;;0.20;0.20;;;;;;;;;;5098240;28;20213;-75
2020/12/20 12:46:40;;;;;;;0.20;0.20;;;;;;;;;;5100545;28;20195;-72
2020/12/20 12:49:06;;;;;;;1.50;1.50;;;;;;;;;;5107226;28;20246;-76
2020/12/20 12:51:34;;;;;;;0.20;0.20;;;;;;;;;;5102169;28;20545;-75
2020/12/20 12:54:00;;;;;;;0.53;0.53;;;;;;;;;;5109673;28;20210;-77
2020/12/20 12:56:27;;;;;;;0.20;0.20;;;;;;;;;;5099220;28;20215;-71
2020/12/20 12:58:54;;;;;;;0.20;0.20;;;;;;;;;;5102268;28;20202;-73
2020/12/20 13:01:28;;;;;;;0.20;0.20;;;;;;;;;;5102609;28;20442;-72
2020/12/20 13:03:54;;;;;;;0.20;0.20;;;;;;;;;;5112643;28;20201;-79
2020/12/20 13:06:21;;;;;;;0.87;0.57;;;;;;;;;;5114256;28;20385;-80
2020/12/20 13:08:49;;;;;;;0.20;0.20;;;;;;;;;;5098997;28;20200;-74
2020/12/20 13:11:15;;;;;;;0.20;0.20;;;;;;;;;;5097661;28;20194;-72
2020/12/20 13:13:41;;;;;;;0.70;0.70;;;;;;;;;;5105589;28;20232;-73
2020/12/20 13:16:09;;;;;;;0.20;0.20;;;;;;;;;;5115721;28;20434;-71
2020/12/20 13:18:35;;;;;;;0.20;0.20;;;;;;;;;;5090092;28;20467;-71
2020/12/20 13:21:02;;;;;;;0.20;0.20;;;;;;;;;;5097834;28;20194;-71
2020/12/20 13:23:28;;;;;;;0.20;0.20;;;;;;;;;;5089629;28;20448;-71
2020/12/20 13:25:56;;;;;;;0.23;0.23;;;;;;;;;;5096449;28;20233;-73
2020/12/20 13:28:24;;;;;;;3.13;3.03;;;;;;;;;;5100604;28;20233;-71
2020/12/20 13:30:52;;;;;;;0.40;0.40;;;;;;;;;;5115855;28;20314;-73
2020/12/20 13:33:19;;;;;;;0.20;0.20;;;;;;;;;;5116041;28;20269;-70
2020/12/20 13:35:45;;;;;;;1.33;1.33;;;;;;;;;;5088269;28;20222;-71
2020/12/20 13:38:11;;;;;;;0.50;0.50;;;;;;;;;;5095502;28;20275;-73
2020/12/20 13:40:38;;;;;;;0.20;0.20;;;;;;;;;;5091738;28;20240;-73
2020/12/20 13:43:05;;;;;;;0.23;0.23;;;;;;;;;;5097934;28;20232;-70
2020/12/20 13:45:32;;;;;;;0.50;0.50;;;;;;;;;;5106270;28;20401;-72
2020/12/20 13:47:58;;;;;;;0.20;0.20;;;;;;;;;;5105907;28;20214;-71
2020/12/20 13:50:24;;;;;;;0.20;0.20;;;;;;;;;;5091637;28;20198;-73
2020/12/20 13:52:51;;;;;;;1.10;0.90;;;;;;;;;;5099294;28;20233;-70
2020/12/20 13:55:17;;;;;;;0.20;0.20;;;;;;;;;;5093767;28;20452;-73
2020/12/20 13:57:44;;;;;;;0.20;0.20;;;;;;;;;;5088042;28;20214;-75
2020/12/20 14:00:11;;;;;;;0.20;0.20;;;;;;;;;;5093361;28;20502;-74
2020/12/20 14:02:37;;;;;;;0.40;0.40;;;;;;;;;;5088431;28;20230;-72
2020/12/20 14:05:04;;;;;;;0.20;0.20;;;;;;;;;;5112264;28;20194;-70
2020/12/20 14:07:30;;;;;;;0.53;0.53;;;;;;;;;;5097383;28;20190;-70
2020/12/20 14:09:57;;;;;;;0.20;0.20;;;;;;;;;;5098117;28;20237;-72
2020/12/20 14:12:23;;;;;;;0.30;0.30;;;;;;;;;;5097529;28;20250;-72
2020/12/20 14:14:50;;;;;;;0.20;0.20;;;;;;;;;;5098066;28;20225;-72
2020/12/20 14:17:17;;;;;;;2.93;1.17;;;;;;;;;;5096939;28;20258;-72
2020/12/20 14:19:44;;;;;;;1.23;1.23;;;;;;;;;;5105396;28;20532;-74
2020/12/20 14:22:10;;;;;;;0.30;0.30;;;;;;;;;;5097205;28;20236;-75
2020/12/20 14:24:39;;;;;;;0.27;0.27;;;;;;;;;;5102213;28;20495;-70
2020/12/20 14:27:05;;;;;;;2.50;2.30;;;;;;;;;;5115085;28;20194;-71
2020/12/20 14:29:32;;;;;;;0.20;0.20;;;;;;;;;;5109851;28;20383;-72
2020/12/20 14:31:58;;;;;;;0.20;0.20;;;;;;;;;;5097216;28;20209;-73
2020/12/20 14:34:26;;;;;;;0.20;0.20;;;;;;;;;;5093151;28;20546;-73
2020/12/20 14:36:52;;;;;;;0.20;0.20;;;;;;;;;;5110850;28;20552;-73
2020/12/20 14:39:18;;;;;;;0.20;0.20;;;;;;;;;;5124082;28;20198;-72
2020/12/20 14:41:45;;;;;;;0.20;0.20;;;;;;;;;;5098683;28;20202;-70
2020/12/20 14:44:11;;;;;;;0.20;0.20;;;;;;;;;;5097592;28;20226;-70